sensor_id;sensor_type;location;lat;lon;timestamp;P1;durP1;ratioP1;P2;durP2;ratioP2
47219;SDS011;32961;51.936;4.788;2023-05-07T00:00:48;27.30;;;19.50;;
47219;SDS011;32961;51.936;4.788;2023-05-07T00:03:16;25.65;;;19.88;;
47219;SDS011;32961;51.936;4.788;2023-05-07T00:05:44;28.77;;;20.38;;
47219;SDS011;32961;51.936;4.788;2023-05-07T00:08:12;30.60;;;21.33;;
47219;SDS011;32961;51.936;4.788;2023-05-07T00:10:40;31.38;;;21.02;;
47219;SDS011;32961;51.936;4.788;2023-05-07T00:13:08;28.98;;;21.88;;
47219;SDS011;32961;51.936;4.788;2023-05-07T00:15:36;35.42;;;23.88;;
47219;SDS011;32961;51.936;4.788;2023-05-07T00:18:05;31.23;;;23.70;;
47219;SDS011;32961;51.936;4.788;2023-05-07T00:20:33;34.03;;;22.45;;
47219;SDS011;32961;51.936;4.788;2023-05-07T00:23:01;33.90;;;24.65;;
47219;SDS011;32961;51.936;4.788;2023-05-07T00:25:29;30.65;;;22.08;;
47219;SDS011;32961;51.936;4.788;2023-05-07T00:27:57;35.67;;;22.60;;
47219;SDS011;32961;51.936;4.788;2023-05-07T00:30:29;27.08;;;20.58;;
47219;SDS011;32961;51.936;4.788;2023-05-07T00:32:57;29.00;;;22.45;;
47219;SDS011;32961;51.936;4.788;2023-05-07T00:35:27;31.33;;;20.58;;
47219;SDS011;32961;51.936;4.788;2023-05-07T00:37:55;30.77;;;21.27;;
47219;SDS011;32961;51.936;4.788;2023-05-07T00:40:23;30.25;;;21.48;;
47219;SDS011;32961;51.936;4.788;2023-05-07T00:42:51;28.35;;;20.08;;
47219;SDS011;32961;51.936;4.788;2023-05-07T00:45:23;23.60;;;17.88;;
47219;SDS011;32961;51.936;4.788;2023-05-07T00:47:54;26.20;;;16.90;;
47219;SDS011;32961;51.936;4.788;2023-05-07T00:50:22;24.65;;;17.90;;
47219;SDS011;32961;51.936;4.788;2023-05-07T00:52:52;20.00;;;15.70;;
47219;SDS011;32961;51.936;4.788;2023-05-07T00:55:21;19.55;;;15.07;;
47219;SDS011;32961;51.936;4.788;2023-05-07T00:57:50;20.30;;;13.73;;
47219;SDS011;32961;51.936;4.788;2023-05-07T01:00:19;21.55;;;15.48;;
47219;SDS011;32961;51.936;4.788;2023-05-07T01:02:47;21.27;;;15.20;;
47219;SDS011;32961;51.936;4.788;2023-05-07T01:05:16;18.63;;;14.65;;
47219;SDS011;32961;51.936;4.788;2023-05-07T01:07:46;20.67;;;15.30;;
47219;SDS011;32961;51.936;4.788;2023-05-07T01:10:17;17.25;;;14.05;;
47219;SDS011;32961;51.936;4.788;2023-05-07T01:12:45;18.85;;;14.15;;
47219;SDS011;32961;51.936;4.788;2023-05-07T01:15:15;20.25;;;14.25;;
47219;SDS011;32961;51.936;4.788;2023-05-07T01:17:44;18.70;;;14.38;;
47219;SDS011;32961;51.936;4.788;2023-05-07T01:20:13;17.33;;;13.90;;
47219;SDS011;32961;51.936;4.788;2023-05-07T01:22:43;19.35;;;13.93;;
47219;SDS011;32961;51.936;4.788;2023-05-07T01:25:12;15.95;;;13.48;;
47219;SDS011;32961;51.936;4.788;2023-05-07T01:27:42;17.52;;;14.30;;
47219;SDS011;32961;51.936;4.788;2023-05-07T01:30:10;17.08;;;13.55;;
47219;SDS011;32961;51.936;4.788;2023-05-07T01:32:40;18.38;;;14.00;;
47219;SDS011;32961;51.936;4.788;2023-05-07T01:35:12;18.15;;;12.75;;
47219;SDS011;32961;51.936;4.788;2023-05-07T01:37:45;21.35;;;13.00;;
47219;SDS011;32961;51.936;4.788;2023-05-07T01:40:14;19.92;;;13.48;;
47219;SDS011;32961;51.936;4.788;2023-05-07T01:42:43;16.50;;;11.90;;
47219;SDS011;32961;51.936;4.788;2023-05-07T01:45:11;19.55;;;12.90;;
47219;SDS011;32961;51.936;4.788;2023-05-07T01:47:39;14.80;;;12.07;;
47219;SDS011;32961;51.936;4.788;2023-05-07T01:50:07;17.90;;;12.63;;
47219;SDS011;32961;51.936;4.788;2023-05-07T01:52:37;17.58;;;12.50;;
47219;SDS011;32961;51.936;4.788;2023-05-07T01:55:07;16.65;;;12.88;;
47219;SDS011;32961;51.936;4.788;2023-05-07T01:57:35;16.98;;;12.45;;
47219;SDS011;32961;51.936;4.788;2023-05-07T02:00:03;18.63;;;13.35;;
47219;SDS011;32961;51.936;4.788;2023-05-07T02:02:32;15.80;;;11.98;;
47219;SDS011;32961;51.936;4.788;2023-05-07T02:05:00;19.70;;;13.10;;
47219;SDS011;32961;51.936;4.788;2023-05-07T02:07:28;14.50;;;11.85;;
47219;SDS011;32961;51.936;4.788;2023-05-07T02:09:56;16.48;;;12.00;;
47219;SDS011;32961;51.936;4.788;2023-05-07T02:12:25;15.07;;;11.60;;
47219;SDS011;32961;51.936;4.788;2023-05-07T02:14:53;15.25;;;10.38;;
47219;SDS011;32961;51.936;4.788;2023-05-07T02:17:21;13.43;;;10.52;;
47219;SDS011;32961;51.936;4.788;2023-05-07T02:19:49;13.10;;;10.48;;
47219;SDS011;32961;51.936;4.788;2023-05-07T02:22:16;11.63;;;9.85;;
47219;SDS011;32961;51.936;4.788;2023-05-07T02:24:45;11.80;;;9.95;;
47219;SDS011;32961;51.936;4.788;2023-05-07T02:27:12;12.98;;;9.10;;
47219;SDS011;32961;51.936;4.788;2023-05-07T02:29:41;11.40;;;9.05;;
47219;SDS011;32961;51.936;4.788;2023-05-07T02:32:09;11.52;;;9.35;;
47219;SDS011;32961;51.936;4.788;2023-05-07T02:34:37;12.57;;;9.20;;
47219;SDS011;32961;51.936;4.788;2023-05-07T02:37:05;11.65;;;9.27;;
47219;SDS011;32961;51.936;4.788;2023-05-07T02:39:33;15.90;;;8.95;;
47219;SDS011;32961;51.936;4.788;2023-05-07T02:42:01;10.32;;;8.82;;
47219;SDS011;32961;51.936;4.788;2023-05-07T02:44:28;12.05;;;8.40;;
47219;SDS011;32961;51.936;4.788;2023-05-07T02:46:59;14.70;;;9.40;;
47219;SDS011;32961;51.936;4.788;2023-05-07T02:49:26;11.57;;;8.95;;
47219;SDS011;32961;51.936;4.788;2023-05-07T02:51:54;10.80;;;8.18;;
47219;SDS011;32961;51.936;4.788;2023-05-07T02:54:22;9.13;;;7.90;;
47219;SDS011;32961;51.936;4.788;2023-05-07T02:56:50;9.77;;;8.13;;
47219;SDS011;32961;51.936;4.788;2023-05-07T02:59:18;10.95;;;8.43;;
47219;SDS011;32961;51.936;4.788;2023-05-07T03:01:45;9.95;;;7.53;;
47219;SDS011;32961;51.936;4.788;2023-05-07T03:04:16;12.98;;;8.80;;
47219;SDS011;32961;51.936;4.788;2023-05-07T03:06:44;9.70;;;7.80;;
47219;SDS011;32961;51.936;4.788;2023-05-07T03:09:11;11.32;;;8.20;;
47219;SDS011;32961;51.936;4.788;2023-05-07T03:11:39;9.65;;;8.35;;
47219;SDS011;32961;51.936;4.788;2023-05-07T03:14:07;9.10;;;7.82;;
47219;SDS011;32961;51.936;4.788;2023-05-07T03:16:35;11.02;;;8.95;;
47219;SDS011;32961;51.936;4.788;2023-05-07T03:19:03;10.68;;;8.73;;
47219;SDS011;32961;51.936;4.788;2023-05-07T03:21:32;12.27;;;8.82;;
47219;SDS011;32961;51.936;4.788;2023-05-07T03:24:00;16.00;;;8.05;;
47219;SDS011;32961;51.936;4.788;2023-05-07T03:26:28;12.13;;;7.85;;
47219;SDS011;32961;51.936;4.788;2023-05-07T03:28:56;14.23;;;8.32;;
47219;SDS011;32961;51.936;4.788;2023-05-07T03:31:24;11.63;;;8.68;;
47219;SDS011;32961;51.936;4.788;2023-05-07T03:33:52;12.57;;;8.50;;
47219;SDS011;32961;51.936;4.788;2023-05-07T03:36:21;9.23;;;8.07;;
47219;SDS011;32961;51.936;4.788;2023-05-07T03:38:50;10.20;;;8.32;;
47219;SDS011;32961;51.936;4.788;2023-05-07T03:41:18;14.82;;;9.80;;
47219;SDS011;32961;51.936;4.788;2023-05-07T03:43:46;15.10;;;8.10;;
47219;SDS011;32961;51.936;4.788;2023-05-07T03:46:14;10.95;;;8.23;;
47219;SDS011;32961;51.936;4.788;2023-05-07T03:48:42;10.50;;;8.65;;
47219;SDS011;32961;51.936;4.788;2023-05-07T03:51:10;12.90;;;8.45;;
47219;SDS011;32961;51.936;4.788;2023-05-07T03:53:37;10.52;;;7.95;;
47219;SDS011;32961;51.936;4.788;2023-05-07T03:56:07;14.02;;;9.50;;
47219;SDS011;32961;51.936;4.788;2023-05-07T03:58:34;12.73;;;8.43;;
47219;SDS011;32961;51.936;4.788;2023-05-07T04:01:02;13.02;;;8.93;;
47219;SDS011;32961;51.936;4.788;2023-05-07T04:03:30;10.60;;;8.57;;
47219;SDS011;32961;51.936;4.788;2023-05-07T04:05:59;10.40;;;7.88;;
47219;SDS011;32961;51.936;4.788;2023-05-07T04:08:27;13.70;;;8.48;;
47219;SDS011;32961;51.936;4.788;2023-05-07T04:10:55;13.43;;;8.77;;
47219;SDS011;32961;51.936;4.788;2023-05-07T04:13:24;15.82;;;9.93;;
47219;SDS011;32961;51.936;4.788;2023-05-07T04:15:53;11.02;;;8.68;;
47219;SDS011;32961;51.936;4.788;2023-05-07T04:18:22;10.82;;;8.43;;
47219;SDS011;32961;51.936;4.788;2023-05-07T04:20:50;9.65;;;7.78;;
47219;SDS011;32961;51.936;4.788;2023-05-07T04:23:18;12.88;;;9.43;;
47219;SDS011;32961;51.936;4.788;2023-05-07T04:25:46;14.73;;;9.45;;
47219;SDS011;32961;51.936;4.788;2023-05-07T04:28:13;12.80;;;9.45;;
47219;SDS011;32961;51.936;4.788;2023-05-07T04:30:42;11.82;;;9.10;;
47219;SDS011;32961;51.936;4.788;2023-05-07T04:33:10;14.50;;;9.65;;
47219;SDS011;32961;51.936;4.788;2023-05-07T04:35:38;13.02;;;10.05;;
47219;SDS011;32961;51.936;4.788;2023-05-07T04:38:06;11.55;;;9.25;;
47219;SDS011;32961;51.936;4.788;2023-05-07T04:40:35;11.43;;;9.38;;
47219;SDS011;32961;51.936;4.788;2023-05-07T04:43:03;13.60;;;10.23;;
47219;SDS011;32961;51.936;4.788;2023-05-07T04:45:31;12.82;;;10.43;;
47219;SDS011;32961;51.936;4.788;2023-05-07T04:48:00;14.05;;;10.55;;
47219;SDS011;32961;51.936;4.788;2023-05-07T04:50:28;16.55;;;10.75;;
47219;SDS011;32961;51.936;4.788;2023-05-07T04:52:56;14.00;;;11.18;;
47219;SDS011;32961;51.936;4.788;2023-05-07T04:55:24;15.15;;;10.48;;
47219;SDS011;32961;51.936;4.788;2023-05-07T04:57:52;15.38;;;11.55;;
47219;SDS011;32961;51.936;4.788;2023-05-07T05:00:20;23.77;;;11.68;;
47219;SDS011;32961;51.936;4.788;2023-05-07T05:02:49;21.58;;;13.18;;
47219;SDS011;32961;51.936;4.788;2023-05-07T05:05:18;17.85;;;12.20;;
47219;SDS011;32961;51.936;4.788;2023-05-07T05:07:46;15.57;;;10.98;;
47219;SDS011;32961;51.936;4.788;2023-05-07T05:10:14;18.20;;;12.05;;
47219;SDS011;32961;51.936;4.788;2023-05-07T05:12:42;18.90;;;13.35;;
47219;SDS011;32961;51.936;4.788;2023-05-07T05:15:11;15.80;;;11.48;;
47219;SDS011;32961;51.936;4.788;2023-05-07T05:17:39;14.85;;;11.48;;
47219;SDS011;32961;51.936;4.788;2023-05-07T05:20:07;16.70;;;12.15;;
47219;SDS011;32961;51.936;4.788;2023-05-07T05:22:38;24.98;;;12.68;;
47219;SDS011;32961;51.936;4.788;2023-05-07T05:25:06;18.83;;;12.70;;
47219;SDS011;32961;51.936;4.788;2023-05-07T05:27:34;16.52;;;12.48;;
47219;SDS011;32961;51.936;4.788;2023-05-07T05:30:02;18.70;;;13.52;;
47219;SDS011;32961;51.936;4.788;2023-05-07T05:32:31;20.23;;;13.20;;
47219;SDS011;32961;51.936;4.788;2023-05-07T05:35:00;16.25;;;13.73;;
47219;SDS011;32961;51.936;4.788;2023-05-07T05:37:28;17.85;;;13.43;;
47219;SDS011;32961;51.936;4.788;2023-05-07T05:39:57;17.50;;;13.75;;
47219;SDS011;32961;51.936;4.788;2023-05-07T05:42:25;16.92;;;14.30;;
47219;SDS011;32961;51.936;4.788;2023-05-07T05:44:53;21.10;;;15.10;;
47219;SDS011;32961;51.936;4.788;2023-05-07T05:47:21;23.15;;;17.35;;
47219;SDS011;32961;51.936;4.788;2023-05-07T05:49:52;21.40;;;15.77;;
47219;SDS011;32961;51.936;4.788;2023-05-07T05:52:20;19.38;;;15.02;;
47219;SDS011;32961;51.936;4.788;2023-05-07T05:54:49;20.05;;;14.57;;
47219;SDS011;32961;51.936;4.788;2023-05-07T05:57:19;22.27;;;15.77;;
47219;SDS011;32961;51.936;4.788;2023-05-07T05:59:47;18.80;;;15.27;;
47219;SDS011;32961;51.936;4.788;2023-05-07T06:02:14;19.00;;;15.77;;
47219;SDS011;32961;51.936;4.788;2023-05-07T06:04:42;21.50;;;15.88;;
47219;SDS011;32961;51.936;4.788;2023-05-07T06:07:10;17.98;;;15.35;;
47219;SDS011;32961;51.936;4.788;2023-05-07T06:09:38;23.13;;;17.05;;
47219;SDS011;32961;51.936;4.788;2023-05-07T06:12:06;18.70;;;15.90;;
47219;SDS011;32961;51.936;4.788;2023-05-07T06:14:35;20.45;;;14.98;;
47219;SDS011;32961;51.936;4.788;2023-05-07T06:17:03;20.50;;;16.02;;
47219;SDS011;32961;51.936;4.788;2023-05-07T06:19:31;23.98;;;17.58;;
47219;SDS011;32961;51.936;4.788;2023-05-07T06:21:59;19.90;;;16.17;;
47219;SDS011;32961;51.936;4.788;2023-05-07T06:24:28;22.02;;;16.42;;
47219;SDS011;32961;51.936;4.788;2023-05-07T06:26:56;17.42;;;15.52;;
47219;SDS011;32961;51.936;4.788;2023-05-07T06:29:24;22.05;;;16.98;;
47219;SDS011;32961;51.936;4.788;2023-05-07T06:31:54;22.55;;;16.63;;
47219;SDS011;32961;51.936;4.788;2023-05-07T06:34:23;22.13;;;16.42;;
47219;SDS011;32961;51.936;4.788;2023-05-07T06:36:51;20.77;;;16.88;;
47219;SDS011;32961;51.936;4.788;2023-05-07T06:39:19;21.50;;;16.58;;
47219;SDS011;32961;51.936;4.788;2023-05-07T06:41:47;24.00;;;17.42;;
47219;SDS011;32961;51.936;4.788;2023-05-07T06:44:14;24.52;;;17.52;;
47219;SDS011;32961;51.936;4.788;2023-05-07T06:46:42;25.83;;;18.58;;
47219;SDS011;32961;51.936;4.788;2023-05-07T06:49:13;22.13;;;17.98;;
47219;SDS011;32961;51.936;4.788;2023-05-07T06:51:41;24.65;;;18.48;;
47219;SDS011;32961;51.936;4.788;2023-05-07T06:54:09;24.45;;;17.73;;
47219;SDS011;32961;51.936;4.788;2023-05-07T06:56:37;21.92;;;18.05;;
47219;SDS011;32961;51.936;4.788;2023-05-07T06:59:05;28.02;;;18.58;;
47219;SDS011;32961;51.936;4.788;2023-05-07T07:01:34;23.27;;;17.52;;
47219;SDS011;32961;51.936;4.788;2023-05-07T07:04:02;25.05;;;18.23;;
47219;SDS011;32961;51.936;4.788;2023-05-07T07:06:31;23.50;;;18.40;;
47219;SDS011;32961;51.936;4.788;2023-05-07T07:08:59;27.02;;;19.35;;
47219;SDS011;32961;51.936;4.788;2023-05-07T07:11:27;25.52;;;19.52;;
47219;SDS011;32961;51.936;4.788;2023-05-07T07:13:55;27.95;;;21.30;;
47219;SDS011;32961;51.936;4.788;2023-05-07T07:16:22;28.27;;;21.70;;
47219;SDS011;32961;51.936;4.788;2023-05-07T07:18:50;25.02;;;20.45;;
47219;SDS011;32961;51.936;4.788;2023-05-07T07:21:18;26.38;;;20.88;;
47219;SDS011;32961;51.936;4.788;2023-05-07T07:23:48;23.13;;;19.80;;
47219;SDS011;32961;51.936;4.788;2023-05-07T07:26:15;26.88;;;19.83;;
47219;SDS011;32961;51.936;4.788;2023-05-07T07:28:45;25.13;;;20.48;;
47219;SDS011;32961;51.936;4.788;2023-05-07T07:31:13;25.17;;;20.08;;
47219;SDS011;32961;51.936;4.788;2023-05-07T07:33:41;21.63;;;19.17;;
47219;SDS011;32961;51.936;4.788;2023-05-07T07:36:09;24.17;;;20.30;;
47219;SDS011;32961;51.936;4.788;2023-05-07T07:38:37;26.33;;;20.67;;
47219;SDS011;32961;51.936;4.788;2023-05-07T07:41:07;24.80;;;20.02;;
47219;SDS011;32961;51.936;4.788;2023-05-07T07:43:35;24.92;;;20.63;;
47219;SDS011;32961;51.936;4.788;2023-05-07T07:46:03;27.98;;;21.63;;
47219;SDS011;32961;51.936;4.788;2023-05-07T07:48:31;24.63;;;21.10;;
47219;SDS011;32961;51.936;4.788;2023-05-07T07:50:59;23.45;;;19.95;;
47219;SDS011;32961;51.936;4.788;2023-05-07T07:53:27;25.80;;;18.55;;
47219;SDS011;32961;51.936;4.788;2023-05-07T07:55:55;26.00;;;19.40;;
47219;SDS011;32961;51.936;4.788;2023-05-07T07:58:26;24.38;;;18.20;;
47219;SDS011;32961;51.936;4.788;2023-05-07T08:00:54;22.33;;;17.60;;
47219;SDS011;32961;51.936;4.788;2023-05-07T08:03:22;22.20;;;17.02;;
47219;SDS011;32961;51.936;4.788;2023-05-07T08:05:50;21.35;;;17.50;;
47219;SDS011;32961;51.936;4.788;2023-05-07T08:08:18;25.27;;;17.45;;
47219;SDS011;32961;51.936;4.788;2023-05-07T08:10:46;21.02;;;16.75;;
47219;SDS011;32961;51.936;4.788;2023-05-07T08:13:16;20.77;;;16.50;;
47219;SDS011;32961;51.936;4.788;2023-05-07T08:15:46;22.13;;;15.70;;
47219;SDS011;32961;51.936;4.788;2023-05-07T08:18:13;22.70;;;17.08;;
47219;SDS011;32961;51.936;4.788;2023-05-07T08:20:41;21.15;;;15.25;;
47219;SDS011;32961;51.936;4.788;2023-05-07T08:23:09;17.00;;;14.15;;
47219;SDS011;32961;51.936;4.788;2023-05-07T08:25:37;20.05;;;14.68;;
47219;SDS011;32961;51.936;4.788;2023-05-07T08:28:05;17.45;;;13.20;;
47219;SDS011;32961;51.936;4.788;2023-05-07T08:30:35;18.58;;;14.77;;
47219;SDS011;32961;51.936;4.788;2023-05-07T08:33:04;17.63;;;13.07;;
47219;SDS011;32961;51.936;4.788;2023-05-07T08:35:32;15.50;;;12.00;;
47219;SDS011;32961;51.936;4.788;2023-05-07T08:38:00;20.63;;;11.57;;
47219;SDS011;32961;51.936;4.788;2023-05-07T08:40:28;15.82;;;12.30;;
47219;SDS011;32961;51.936;4.788;2023-05-07T08:42:56;18.35;;;12.13;;
47219;SDS011;32961;51.936;4.788;2023-05-07T08:45:25;15.95;;;12.50;;
47219;SDS011;32961;51.936;4.788;2023-05-07T08:48:02;13.82;;;11.68;;
47219;SDS011;32961;51.936;4.788;2023-05-07T08:50:36;13.75;;;11.60;;
47219;SDS011;32961;51.936;4.788;2023-05-07T08:53:05;14.93;;;11.63;;
47219;SDS011;32961;51.936;4.788;2023-05-07T08:55:33;14.73;;;11.13;;
47219;SDS011;32961;51.936;4.788;2023-05-07T08:58:01;13.85;;;11.05;;
47219;SDS011;32961;51.936;4.788;2023-05-07T09:00:28;15.75;;;11.13;;
47219;SDS011;32961;51.936;4.788;2023-05-07T09:02:56;14.13;;;10.35;;
47219;SDS011;32961;51.936;4.788;2023-05-07T09:05:26;12.57;;;9.27;;
47219;SDS011;32961;51.936;4.788;2023-05-07T09:07:53;13.38;;;10.02;;
47219;SDS011;32961;51.936;4.788;2023-05-07T09:10:23;12.38;;;10.18;;
47219;SDS011;32961;51.936;4.788;2023-05-07T09:12:51;18.80;;;10.45;;
47219;SDS011;32961;51.936;4.788;2023-05-07T09:15:19;13.63;;;9.40;;
47219;SDS011;32961;51.936;4.788;2023-05-07T09:17:48;13.80;;;9.35;;
47219;SDS011;32961;51.936;4.788;2023-05-07T09:20:15;16.35;;;8.75;;
47219;SDS011;32961;51.936;4.788;2023-05-07T09:22:45;10.02;;;7.55;;
47219;SDS011;32961;51.936;4.788;2023-05-07T09:25:13;10.98;;;8.13;;
47219;SDS011;32961;51.936;4.788;2023-05-07T09:27:41;10.60;;;8.00;;
47219;SDS011;32961;51.936;4.788;2023-05-07T09:30:09;12.20;;;8.13;;
47219;SDS011;32961;51.936;4.788;2023-05-07T09:32:38;11.43;;;8.20;;
47219;SDS011;32961;51.936;4.788;2023-05-07T09:35:06;10.38;;;8.32;;
47219;SDS011;32961;51.936;4.788;2023-05-07T09:37:42;10.88;;;8.50;;
47219;SDS011;32961;51.936;4.788;2023-05-07T09:40:12;10.73;;;8.20;;
47219;SDS011;32961;51.936;4.788;2023-05-07T09:42:48;10.15;;;8.38;;
47219;SDS011;32961;51.936;4.788;2023-05-07T09:45:16;9.48;;;6.63;;
47219;SDS011;32961;51.936;4.788;2023-05-07T09:47:49;14.13;;;8.95;;
47219;SDS011;32961;51.936;4.788;2023-05-07T09:50:21;11.82;;;6.40;;
47219;SDS011;32961;51.936;4.788;2023-05-07T09:52:52;10.27;;;7.13;;
47219;SDS011;32961;51.936;4.788;2023-05-07T09:55:22;9.50;;;6.85;;
47219;SDS011;32961;51.936;4.788;2023-05-07T09:57:51;11.40;;;7.13;;
47219;SDS011;32961;51.936;4.788;2023-05-07T10:00:20;9.82;;;7.13;;
47219;SDS011;32961;51.936;4.788;2023-05-07T10:05:21;13.55;;;7.60;;
47219;SDS011;32961;51.936;4.788;2023-05-07T10:07:49;15.18;;;7.00;;
47219;SDS011;32961;51.936;4.788;2023-05-07T10:10:18;11.13;;;7.20;;
47219;SDS011;32961;51.936;4.788;2023-05-07T10:12:47;12.27;;;7.20;;
47219;SDS011;32961;51.936;4.788;2023-05-07T10:15:17;9.48;;;6.75;;
47219;SDS011;32961;51.936;4.788;2023-05-07T10:17:45;11.40;;;6.90;;
47219;SDS011;32961;51.936;4.788;2023-05-07T10:20:15;11.52;;;6.95;;
47219;SDS011;32961;51.936;4.788;2023-05-07T10:22:44;13.27;;;7.25;;
47219;SDS011;32961;51.936;4.788;2023-05-07T10:25:14;10.75;;;6.95;;
47219;SDS011;32961;51.936;4.788;2023-05-07T10:27:47;11.30;;;7.35;;
47219;SDS011;32961;51.936;4.788;2023-05-07T10:30:20;9.35;;;6.15;;
47219;SDS011;32961;51.936;4.788;2023-05-07T10:32:59;11.38;;;6.20;;
47219;SDS011;32961;51.936;4.788;2023-05-07T10:35:36;9.55;;;6.40;;
47219;SDS011;32961;51.936;4.788;2023-05-07T10:38:06;8.90;;;5.72;;
47219;SDS011;32961;51.936;4.788;2023-05-07T10:40:35;8.48;;;5.15;;
47219;SDS011;32961;51.936;4.788;2023-05-07T10:43:05;9.13;;;5.50;;
47219;SDS011;32961;51.936;4.788;2023-05-07T10:45:36;10.37;;;6.07;;
47219;SDS011;32961;51.936;4.788;2023-05-07T10:48:10;8.75;;;5.57;;
47219;SDS011;32961;51.936;4.788;2023-05-07T10:50:42;9.43;;;6.28;;
47219;SDS011;32961;51.936;4.788;2023-05-07T10:53:22;10.77;;;6.45;;
47219;SDS011;32961;51.936;4.788;2023-05-07T11:02:01;8.73;;;7.00;;
47219;SDS011;32961;51.936;4.788;2023-05-07T11:04:32;13.73;;;6.35;;
47219;SDS011;32961;51.936;4.788;2023-05-07T11:10:00;8.88;;;5.88;;
47219;SDS011;32961;51.936;4.788;2023-05-07T11:15:34;8.95;;;5.70;;
47219;SDS011;32961;51.936;4.788;2023-05-07T11:18:04;8.10;;;5.93;;
47219;SDS011;32961;51.936;4.788;2023-05-07T11:26:28;8.45;;;5.25;;
47219;SDS011;32961;51.936;4.788;2023-05-07T11:28:57;12.95;;;5.63;;
47219;SDS011;32961;51.936;4.788;2023-05-07T11:31:27;8.95;;;5.53;;
47219;SDS011;32961;51.936;4.788;2023-05-07T11:33:56;10.38;;;6.10;;
47219;SDS011;32961;51.936;4.788;2023-05-07T11:36:25;10.23;;;6.40;;
47219;SDS011;32961;51.936;4.788;2023-05-07T11:38:58;9.40;;;6.65;;
47219;SDS011;32961;51.936;4.788;2023-05-07T11:41:33;9.25;;;5.82;;
47219;SDS011;32961;51.936;4.788;2023-05-07T11:44:02;14.65;;;6.82;;
47219;SDS011;32961;51.936;4.788;2023-05-07T11:46:31;8.75;;;6.05;;
47219;SDS011;32961;51.936;4.788;2023-05-07T11:49:00;13.80;;;7.35;;
47219;SDS011;32961;51.936;4.788;2023-05-07T11:51:28;8.57;;;5.88;;
47219;SDS011;32961;51.936;4.788;2023-05-07T11:53:56;9.20;;;5.97;;
47219;SDS011;32961;51.936;4.788;2023-05-07T11:56:24;12.32;;;6.10;;
47219;SDS011;32961;51.936;4.788;2023-05-07T11:58:51;10.60;;;6.60;;
47219;SDS011;32961;51.936;4.788;2023-05-07T12:01:19;12.38;;;6.15;;
47219;SDS011;32961;51.936;4.788;2023-05-07T12:03:48;9.73;;;6.07;;
47219;SDS011;32961;51.936;4.788;2023-05-07T12:06:16;13.15;;;5.57;;
47219;SDS011;32961;51.936;4.788;2023-05-07T12:08:45;9.38;;;6.13;;
47219;SDS011;32961;51.936;4.788;2023-05-07T12:11:14;8.10;;;5.55;;
47219;SDS011;32961;51.936;4.788;2023-05-07T12:13:44;13.43;;;5.57;;
47219;SDS011;32961;51.936;4.788;2023-05-07T12:16:12;11.35;;;6.00;;
47219;SDS011;32961;51.936;4.788;2023-05-07T12:18:43;12.63;;;5.97;;
47219;SDS011;32961;51.936;4.788;2023-05-07T12:21:13;12.88;;;6.28;;
47219;SDS011;32961;51.936;4.788;2023-05-07T12:23:42;10.15;;;5.90;;
47219;SDS011;32961;51.936;4.788;2023-05-07T12:26:10;13.32;;;5.88;;
47219;SDS011;32961;51.936;4.788;2023-05-07T12:28:38;8.32;;;4.63;;
47219;SDS011;32961;51.936;4.788;2023-05-07T12:31:07;6.85;;;5.30;;
47219;SDS011;32961;51.936;4.788;2023-05-07T12:33:35;10.80;;;6.35;;
47219;SDS011;32961;51.936;4.788;2023-05-07T12:36:05;8.48;;;5.32;;
47219;SDS011;32961;51.936;4.788;2023-05-07T12:38:36;9.85;;;5.05;;
47219;SDS011;32961;51.936;4.788;2023-05-07T12:41:05;14.57;;;4.53;;
47219;SDS011;32961;51.936;4.788;2023-05-07T12:43:34;7.05;;;4.28;;
47219;SDS011;32961;51.936;4.788;2023-05-07T12:46:04;10.48;;;4.57;;
47219;SDS011;32961;51.936;4.788;2023-05-07T12:48:33;7.85;;;4.20;;
47219;SDS011;32961;51.936;4.788;2023-05-07T12:51:03;9.23;;;4.40;;
47219;SDS011;32961;51.936;4.788;2023-05-07T12:53:33;9.88;;;3.95;;
47219;SDS011;32961;51.936;4.788;2023-05-07T12:56:04;8.73;;;4.15;;
47219;SDS011;32961;51.936;4.788;2023-05-07T12:58:33;9.00;;;4.15;;
47219;SDS011;32961;51.936;4.788;2023-05-07T13:01:04;6.93;;;4.22;;
47219;SDS011;32961;51.936;4.788;2023-05-07T13:03:33;9.23;;;4.85;;
47219;SDS011;32961;51.936;4.788;2023-05-07T13:06:02;14.13;;;6.65;;
47219;SDS011;32961;51.936;4.788;2023-05-07T13:08:32;7.80;;;4.78;;
47219;SDS011;32961;51.936;4.788;2023-05-07T13:11:01;10.40;;;6.13;;
47219;SDS011;32961;51.936;4.788;2023-05-07T13:13:31;12.50;;;6.80;;
47219;SDS011;32961;51.936;4.788;2023-05-07T13:16:01;9.55;;;5.80;;
47219;SDS011;32961;51.936;4.788;2023-05-07T13:18:29;10.82;;;6.18;;
47219;SDS011;32961;51.936;4.788;2023-05-07T13:20:59;10.82;;;6.20;;
47219;SDS011;32961;51.936;4.788;2023-05-07T13:23:27;10.77;;;6.03;;
47219;SDS011;32961;51.936;4.788;2023-05-07T13:25:56;10.10;;;5.10;;
47219;SDS011;32961;51.936;4.788;2023-05-07T13:28:24;11.45;;;4.80;;
47219;SDS011;32961;51.936;4.788;2023-05-07T13:30:53;8.40;;;4.57;;
47219;SDS011;32961;51.936;4.788;2023-05-07T13:33:21;5.88;;;3.25;;
47219;SDS011;32961;51.936;4.788;2023-05-07T13:35:50;4.22;;;2.53;;
47219;SDS011;32961;51.936;4.788;2023-05-07T13:38:18;4.40;;;2.10;;
47219;SDS011;32961;51.936;4.788;2023-05-07T13:40:48;6.63;;;2.10;;
47219;SDS011;32961;51.936;4.788;2023-05-07T13:43:16;9.07;;;1.67;;
47219;SDS011;32961;51.936;4.788;2023-05-07T13:45:45;3.78;;;1.30;;
47219;SDS011;32961;51.936;4.788;2023-05-07T13:48:14;3.63;;;1.48;;
47219;SDS011;32961;51.936;4.788;2023-05-07T13:50:42;2.95;;;1.23;;
47219;SDS011;32961;51.936;4.788;2023-05-07T13:53:09;2.53;;;1.27;;
47219;SDS011;32961;51.936;4.788;2023-05-07T13:55:37;1.92;;;1.00;;
47219;SDS011;32961;51.936;4.788;2023-05-07T13:58:05;2.15;;;1.00;;
47219;SDS011;32961;51.936;4.788;2023-05-07T14:00:33;5.05;;;1.30;;
47219;SDS011;32961;51.936;4.788;2023-05-07T14:03:01;4.32;;;1.50;;
47219;SDS011;32961;51.936;4.788;2023-05-07T14:05:31;2.55;;;1.35;;
47219;SDS011;32961;51.936;4.788;2023-05-07T14:07:59;2.97;;;1.40;;
47219;SDS011;32961;51.936;4.788;2023-05-07T14:10:27;2.92;;;1.40;;
47219;SDS011;32961;51.936;4.788;2023-05-07T14:12:55;4.53;;;1.67;;
47219;SDS011;32961;51.936;4.788;2023-05-07T14:15:22;3.60;;;2.40;;
47219;SDS011;32961;51.936;4.788;2023-05-07T14:17:50;5.10;;;2.30;;
47219;SDS011;32961;51.936;4.788;2023-05-07T14:20:18;5.15;;;2.20;;
47219;SDS011;32961;51.936;4.788;2023-05-07T14:22:49;4.43;;;2.38;;
47219;SDS011;32961;51.936;4.788;2023-05-07T14:25:17;6.07;;;2.85;;
47219;SDS011;32961;51.936;4.788;2023-05-07T14:27:45;8.10;;;3.72;;
47219;SDS011;32961;51.936;4.788;2023-05-07T14:30:13;4.43;;;3.38;;
47219;SDS011;32961;51.936;4.788;2023-05-07T14:32:41;9.13;;;4.70;;
47219;SDS011;32961;51.936;4.788;2023-05-07T14:35:12;7.30;;;4.32;;
47219;SDS011;32961;51.936;4.788;2023-05-07T14:37:40;7.95;;;4.05;;
47219;SDS011;32961;51.936;4.788;2023-05-07T14:40:11;9.23;;;5.25;;
47219;SDS011;32961;51.936;4.788;2023-05-07T14:42:39;6.97;;;4.35;;
47219;SDS011;32961;51.936;4.788;2023-05-07T14:45:08;7.85;;;4.80;;
47219;SDS011;32961;51.936;4.788;2023-05-07T14:47:37;5.13;;;3.83;;
47219;SDS011;32961;51.936;4.788;2023-05-07T14:50:08;7.93;;;4.93;;
47219;SDS011;32961;51.936;4.788;2023-05-07T14:52:36;10.60;;;5.05;;
47219;SDS011;32961;51.936;4.788;2023-05-07T14:55:05;9.98;;;6.38;;
47219;SDS011;32961;51.936;4.788;2023-05-07T14:57:34;5.47;;;4.13;;
47219;SDS011;32961;51.936;4.788;2023-05-07T15:00:03;11.32;;;7.40;;